Aviation Digital Data Service (ADDS)

Output produced by METARs form (1923 UTC 25 May 2015)
found at http://aviationweather.gov/adds/metars/
 
KBTV 251720Z 2518/2618 18007KT P6SM -SHRA SCT045 OVC080 
     FM260600 20012G20KT P6SM SCT030 BKN035 
     FM261300 20013G25KT P6SM FEW035 SCT050 BKN120